Time;durP1;ratioP1;P1;durP2;ratioP2;P2;SDS_P1;SDS_P2;PMS_P1;PMS_P2;Temp;Humidity;BMP_temperature;BMP_pressure;BME280_temperature;BME280_humidity;BME280_pressure;Samples;Min_cycle;Max_cycle;Signal;HPM_P1;HPM_P2
2023/02/18 00:01:42;;;;;;;9.43;5.97;;;;;;;17.69;45.06;100451.41;5115780;28;20040;-62
2023/02/18 00:04:10;;;;;;;10.95;5.82;;;;;;;17.66;44.92;100448.97;5115615;28;20114;-62
2023/02/18 00:06:39;;;;;;;9.55;5.18;;;;;;;17.62;44.92;100437.59;5115668;28;20085;-62
2023/02/18 00:09:08;;;;;;;7.65;4.95;;;;;;;17.62;44.90;100440.28;5115522;28;20051;-61
2023/02/18 00:11:38;;;;;;;8.93;4.95;;;;;;;17.60;45.14;100436.88;5115622;28;20486;-62
2023/02/18 00:14:10;;;;;;;7.43;4.22;;;;;;;17.59;45.09;100426.22;5115501;28;20092;-61
2023/02/18 00:16:39;;;;;;;7.13;4.60;;;;;;;17.56;45.22;100430.03;5115461;27;20132;-61
2023/02/18 00:19:11;;;;;;;6.82;4.18;;;;;;;17.54;45.21;100423.91;5115674;28;20463;-61
2023/02/18 00:21:40;;;;;;;7.57;4.57;;;;;;;17.53;45.11;100416.81;5115437;28;20039;-61
2023/02/18 00:24:09;;;;;;;6.65;4.15;;;;;;;17.51;45.35;100421.50;5115260;28;20299;-62
2023/02/18 00:26:37;;;;;;;6.15;4.50;;;;;;;17.49;45.57;100414.53;5115194;28;20062;-61
2023/02/18 00:29:05;;;;;;;8.30;4.55;;;;;;;17.48;45.73;100410.13;5115059;28;20044;-61
2023/02/18 00:31:36;;;;;;;6.80;3.95;;;;;;;17.46;45.49;100415.63;5115124;28;20632;-61
2023/02/18 00:34:07;;;;;;;7.30;4.03;;;;;;;17.44;45.71;100418.47;5115198;28;20047;-61
2023/02/18 00:36:36;;;;;;;5.88;3.85;;;;;;;17.43;45.75;100414.06;5114903;28;20135;-61
2023/02/18 00:39:07;;;;;;;6.50;3.92;;;;;;;17.41;45.71;100405.25;5115235;28;20043;-61
2023/02/18 00:41:35;;;;;;;7.03;3.67;;;;;;;17.39;45.77;100407.22;5114988;28;20070;-61
2023/02/18 00:44:04;;;;;;;6.45;3.60;;;;;;;17.37;45.69;100414.59;5114980;28;20565;-61
2023/02/18 00:46:32;;;;;;;6.40;3.22;;;;;;;17.36;46.10;100409.31;5114869;28;20043;-61
2023/02/18 00:49:01;;;;;;;6.35;3.83;;;;;;;17.36;45.92;100417.41;5104494;28;20055;-61
2023/02/18 00:51:31;;;;;;;5.82;3.20;;;;;;;17.33;46.03;100406.88;5093130;28;20050;-60
2023/02/18 00:53:59;;;;;;;5.22;3.10;;;;;;;17.31;46.07;100404.34;5094302;28;20044;-62
2023/02/18 00:56:27;;;;;;;6.28;3.10;;;;;;;17.31;46.00;100398.94;5094260;28;20059;-62
2023/02/18 00:58:56;;;;;;;5.55;2.90;;;;;;;17.29;46.42;100411.69;5094365;28;20044;-61
2023/02/18 01:01:24;;;;;;;5.30;2.78;;;;;;;17.28;46.22;100403.75;5094249;28;20048;-62
2023/02/18 01:03:53;;;;;;;4.70;2.92;;;;;;;17.27;46.31;100392.09;5094229;28;20036;-62
2023/02/18 01:06:22;;;;;;;6.07;2.80;;;;;;;17.25;46.31;100393.22;5094036;28;20044;-61
2023/02/18 01:08:51;;;;;;;5.97;2.97;;;;;;;17.23;46.44;100385.25;5094065;28;20072;-62
2023/02/18 01:11:20;;;;;;;4.38;2.45;;;;;;;17.22;46.57;100378.16;5094031;28;20401;-60
2023/02/18 01:13:48;;;;;;;4.68;2.65;;;;;;;17.22;46.44;100390.78;5094005;28;20051;-60
2023/02/18 01:16:16;;;;;;;5.07;2.50;;;;;;;17.19;46.55;100385.66;5093927;28;20051;-61
2023/02/18 01:18:45;;;;;;;4.85;2.67;;;;;;;17.19;46.67;100382.97;5093919;28;20066;-61
2023/02/18 01:21:13;;;;;;;5.47;2.88;;;;;;;17.16;46.81;100387.63;5093761;28;20044;-60
2023/02/18 01:23:42;;;;;;;5.35;2.70;;;;;;;17.15;46.71;100383.22;5093741;28;20485;-62
2023/02/18 01:26:12;;;;;;;5.97;2.70;;;;;;;17.14;46.71;100370.72;5093667;28;20401;-60
2023/02/18 01:28:41;;;;;;;4.10;2.30;;;;;;;17.13;46.68;100377.09;5093645;28;20564;-61
2023/02/18 01:31:12;;;;;;;4.50;2.28;;;;;;;17.10;46.86;100368.44;5093703;28;20517;-61
2023/02/18 01:33:41;;;;;;;4.35;2.42;;;;;;;17.11;46.90;100383.63;5093374;28;20075;-62
2023/02/18 01:36:10;;;;;;;5.38;2.80;;;;;;;17.09;46.78;100366.75;5093437;28;20063;-62
2023/02/18 01:38:40;;;;;;;4.65;2.22;;;;;;;17.08;46.79;100371.28;5093457;28;20052;-61
2023/02/18 01:41:11;;;;;;;3.33;1.90;;;;;;;17.09;46.67;100375.69;5093571;28;20047;-62
2023/02/18 01:43:39;;;;;;;4.95;2.20;;;;;;;17.07;47.13;100369.53;5093364;28;20051;-61
2023/02/18 01:46:14;;;;;;;4.40;2.13;;;;;;;17.05;47.07;100366.13;5093327;28;20051;-61
2023/02/18 01:48:46;;;;;;;3.60;1.90;;;;;;;17.05;47.02;100370.66;5093524;28;20062;-61
2023/02/18 01:51:18;;;;;;;4.05;1.88;;;;;;;17.02;47.04;100360.16;5093373;28;20127;-60
2023/02/18 01:53:53;;;;;;;4.05;1.92;;;;;;;17.03;47.16;100367.25;5093148;28;20040;-62
2023/02/18 01:56:29;;;;;;;3.80;1.95;;;;;;;17.03;47.23;100351.06;5093206;28;20062;-60
2023/02/18 01:58:58;;;;;;;3.13;1.60;;;;;;;17.01;47.10;100359.31;5092983;28;20546;-62
2023/02/18 02:01:27;;;;;;;3.50;1.80;;;;;;;17.01;47.30;100359.31;5093146;28;20119;-60
2023/02/18 02:03:55;;;;;;;4.10;1.60;;;;;;;17.00;47.46;100354.91;5092559;28;20040;-60
2023/02/18 02:06:25;;;;;;;2.67;1.65;;;;;;;16.97;47.45;100359.69;5093008;28;20051;-61
2023/02/18 02:08:59;;;;;;;3.50;1.70;;;;;;;16.98;47.65;100364.06;5092947;28;20085;-61
2023/02/18 02:11:55;;;;;;;3.80;1.80;;;;;;;16.97;47.64;100352.44;5092767;28;20067;-61
2023/02/18 02:14:43;;;;;;;5.47;1.90;;;;;;;16.95;47.69;100340.94;5092747;28;20082;-61
2023/02/18 02:17:21;;;;;;;3.83;1.70;;;;;;;16.95;47.66;100335.56;5092757;28;20048;-60
2023/02/18 02:20:21;;;;;;;2.03;1.30;;;;;;;16.92;47.63;100338.53;5092602;28;20428;-61
2023/02/18 02:23:18;;;;;;;2.13;1.17;;;;;;;16.93;47.85;100351.00;5092601;28;20405;-62
2023/02/18 02:26:19;;;;;;;2.05;1.30;;;;;;;16.93;47.85;100334.84;5092717;28;20382;-61
2023/02/18 02:29:25;;;;;;;2.47;1.23;;;;;;;16.90;48.00;100351.28;5092749;28;20048;-60
2023/02/18 02:32:32;;;;;;;2.78;1.42;;;;;;;16.88;47.95;100359.47;5060974;28;20063;-60
2023/02/18 02:35:05;;;;;;;2.83;1.40;;;;;;;16.88;48.02;100346.00;5092460;28;20044;-59
2023/02/18 02:37:41;;;;;;;2.92;1.38;;;;;;;16.87;47.94;100346.13;5092296;28;20086;-61
2023/02/18 02:40:23;;;;;;;2.38;1.25;;;;;;;16.86;48.08;100339.88;5092428;28;20060;-61
2023/02/18 02:43:04;;;;;;;4.85;1.50;;;;;;;16.84;48.15;100341.00;5092107;28;20443;-62
2023/02/18 02:45:44;;;;;;;1.50;1.10;;;;;;;16.84;48.21;100341.00;5092295;28;20048;-61
2023/02/18 02:48:21;;;;;;;2.55;1.20;;;;;;;16.83;48.29;100361.72;5092385;28;20056;-61
2023/02/18 02:50:55;;;;;;;2.25;1.10;;;;;;;16.82;48.19;100356.47;5092301;28;20379;-61
2023/02/18 02:53:28;;;;;;;2.28;1.05;;;;;;;16.81;48.12;100352.91;5092186;28;20071;-61
2023/02/18 02:55:56;;;;;;;2.03;1.00;;;;;;;16.81;48.21;100365.53;5092275;28;20055;-61
2023/02/18 02:58:25;;;;;;;2.83;1.10;;;;;;;16.81;48.22;100354.75;5092098;28;20070;-61
2023/02/18 03:01:13;;;;;;;1.38;0.98;;;;;;;16.80;48.23;100348.50;5092041;28;20048;-61
2023/02/18 03:04:23;;;;;;;2.63;1.20;;;;;;;16.80;48.16;100377.28;5091989;28;20094;-61
2023/02/18 03:07:08;;;;;;;1.60;1.08;;;;;;;16.78;48.30;100353.16;5043050;28;20052;-61
2023/02/18 03:09:53;;;;;;;1.98;1.02;;;;;;;16.80;48.33;100388.06;5091957;28;20097;-61
2023/02/18 03:12:33;;;;;;;2.05;1.17;;;;;;;16.77;48.40;100361.38;5091955;28;20044;-61
2023/02/18 03:15:08;;;;;;;1.50;1.02;;;;;;;16.78;48.33;100371.16;5091630;28;20051;-61
2023/02/18 03:17:41;;;;;;;2.08;1.20;;;;;;;16.77;48.39;100378.38;5092777;28;20527;-62
2023/02/18 03:20:17;;;;;;;3.65;1.02;;;;;;;16.77;48.34;100366.75;5092296;28;20068;-61
2023/02/18 03:22:49;;;;;;;1.10;0.85;;;;;;;16.77;48.37;100383.75;5091711;28;20044;-61
2023/02/18 03:25:18;;;;;;;1.55;0.90;;;;;;;16.72;48.58;100379.75;5090429;28;20101;-62
2023/02/18 03:27:51;;;;;;;1.33;0.90;;;;;;;16.75;48.40;100374.97;5091693;28;20078;-62
2023/02/18 03:30:24;;;;;;;1.70;1.00;;;;;;;16.74;48.54;100377.78;5091930;28;20071;-61
2023/02/18 03:32:55;;;;;;;;;;;;;;;16.76;48.49;100386.59;5092030;28;20048;-60
2023/02/18 03:35:24;;;;;;;1.33;0.80;;;;;;;16.74;48.50;100388.56;5091769;28;20432;-61
2023/02/18 03:37:59;;;;;;;3.03;1.08;;;;;;;16.71;48.47;100369.97;5091555;28;20067;-60
2023/02/18 03:40:28;;;;;;;0.93;0.70;;;;;;;16.72;48.45;100394.09;5091741;28;20048;-61
2023/02/18 03:42:57;;;;;;;2.55;0.90;;;;;;;16.72;48.70;100379.75;5091544;28;20460;-61
2023/02/18 03:45:27;;;;;;;1.77;1.00;;;;;;;16.72;48.73;100390.53;5091554;28;20051;-61
2023/02/18 03:47:55;;;;;;;1.95;1.00;;;;;;;16.71;48.50;100389.69;5091464;28;20044;-60
2023/02/18 03:50:24;;;;;;;1.60;0.88;;;;;;;16.71;48.59;100388.84;5091569;28;20044;-61
2023/02/18 03:52:52;;;;;;;2.17;1.02;;;;;;;16.70;48.64;100379.03;5091584;28;20052;-60
2023/02/18 03:55:21;;;;;;;1.80;0.98;;;;;;;16.70;48.64;100392.50;5091530;28;20055;-60
2023/02/18 03:57:49;;;;;;;0.90;0.73;;;;;;;16.69;48.68;100371.91;5091581;28;20503;-60
2023/02/18 04:00:19;;;;;;;2.10;0.75;;;;;;;16.69;48.75;100388.94;5091435;28;20485;-60
2023/02/18 04:02:47;;;;;;;1.13;0.90;;;;;;;16.67;48.94;100379.25;5091453;28;20044;-62
2023/02/18 04:05:16;;;;;;;1.58;0.82;;;;;;;16.68;48.79;100389.03;5091460;28;20089;-62
2023/02/18 04:07:44;;;;;;;1.80;0.80;;;;;;;16.67;48.94;100372.03;5091361;28;20040;-62
2023/02/18 04:10:14;;;;;;;1.98;1.00;;;;;;;16.67;48.84;100376.56;5091378;28;20055;-60
2023/02/18 04:12:43;;;;;;;2.40;0.75;;;;;;;16.64;48.97;100383.06;5091315;28;20047;-60
2023/02/18 04:15:12;;;;;;;1.38;0.63;;;;;;;16.66;49.02;100380.22;5091353;28;20056;-61
2023/02/18 04:17:40;;;;;;;1.40;0.80;;;;;;;16.64;48.90;100380.38;5091384;28;20048;-62
2023/02/18 04:20:09;;;;;;;1.00;0.80;;;;;;;16.66;49.08;100391.00;5091455;28;20048;-62
2023/02/18 04:22:39;;;;;;;2.28;1.00;;;;;;;16.64;48.94;100387.59;5091282;28;20127;-60
2023/02/18 04:25:07;;;;;;;1.60;0.88;;;;;;;16.63;48.94;100393.97;5091566;28;20044;-60
2023/02/18 04:27:36;;;;;;;1.55;0.90;;;;;;;16.63;49.05;100385.88;5094785;28;20071;-62
2023/02/18 04:30:07;;;;;;;2.40;0.70;;;;;;;16.60;49.08;100395.94;5095032;28;20052;-60
2023/02/18 04:32:41;;;;;;;1.85;0.95;;;;;;;16.63;48.91;100404.75;5094871;28;20048;-60
2023/02/18 04:35:09;;;;;;;1.88;0.80;;;;;;;16.62;49.03;100384.19;5094723;28;20043;-59
2023/02/18 04:37:37;;;;;;;1.85;0.77;;;;;;;16.62;49.10;100403.03;5094375;28;20509;-62
2023/02/18 04:40:08;;;;;;;1.35;0.85;;;;;;;16.57;49.22;100401.56;5094689;28;20044;-62
2023/02/18 04:42:36;;;;;;;0.75;0.60;;;;;;;16.59;49.51;100396.88;5094591;28;20131;-61
2023/02/18 04:45:06;;;;;;;1.30;0.70;;;;;;;16.58;49.41;100403.25;5094489;28;20070;-61
2023/02/18 04:47:35;;;;;;;2.45;1.00;;;;;;;16.58;49.26;100419.41;5094414;28;20097;-61
2023/02/18 04:50:04;;;;;;;1.58;0.88;;;;;;;16.57;49.46;100417.72;5094497;28;20050;-61
2023/02/18 04:52:33;;;;;;;2.33;0.93;;;;;;;16.56;49.48;100429.47;5094285;28;20451;-61
2023/02/18 04:55:02;;;;;;;1.65;0.80;;;;;;;16.57;49.53;100435.72;5094333;28;20052;-60
2023/02/18 04:57:30;;;;;;;1.73;0.80;;;;;;;16.55;49.43;100413.44;5094300;28;20040;-62
2023/02/18 04:59:58;;;;;;;1.08;0.65;;;;;;;16.56;49.64;100455.53;5094273;28;20478;-61
2023/02/18 05:02:28;;;;;;;1.52;0.68;;;;;;;16.53;49.49;100443.19;5094175;28;20061;-60
2023/02/18 05:04:56;;;;;;;2.55;0.80;;;;;;;16.52;49.65;100452.25;5094098;28;20090;-61
2023/02/18 05:07:24;;;;;;;0.77;0.63;;;;;;;16.54;49.60;100462.91;5094129;28;20044;-61
2023/02/18 05:09:54;;;;;;;1.10;0.70;;;;;;;16.54;49.51;100479.06;5094122;28;20047;-60
2023/02/18 05:12:22;;;;;;;1.08;0.70;;;;;;;16.54;49.55;100463.75;5093924;28;20044;-61
2023/02/18 05:14:50;;;;;;;0.98;0.70;;;;;;;16.54;49.54;100481.75;5093980;28;20039;-61
2023/02/18 05:17:18;;;;;;;1.60;0.85;;;;;;;16.51;49.65;100468.53;5093779;28;20048;-60
2023/02/18 05:19:50;;;;;;;1.63;0.63;;;;;;;16.51;49.71;100472.09;5093851;28;20481;-61
2023/02/18 05:22:19;;;;;;;1.45;0.88;;;;;;;16.52;49.75;100472.94;5093795;28;20489;-61
2023/02/18 05:24:47;;;;;;;1.90;0.55;;;;;;;16.50;49.80;100462.31;5093704;28;20059;-60
2023/02/18 05:27:15;;;;;;;0.75;0.50;;;;;;;16.50;49.76;100466.81;5093749;28;20101;-61
2023/02/18 05:29:43;;;;;;;0.93;0.60;;;;;;;16.50;49.74;100467.69;5093640;28;20397;-61
2023/02/18 05:32:11;;;;;;;0.68;0.60;;;;;;;16.50;49.70;100472.19;5093517;28;20047;-60
2023/02/18 05:34:39;;;;;;;0.80;0.60;;;;;;;16.50;49.79;100475.75;5093570;28;20048;-61
2023/02/18 05:37:09;;;;;;;1.10;0.70;;;;;;;16.49;49.74;100482.09;5092620;28;20382;-61
2023/02/18 05:39:37;;;;;;;1.15;0.70;;;;;;;16.50;49.83;100472.19;5093491;28;20400;-61
2023/02/18 05:42:05;;;;;;;1.60;0.85;;;;;;;16.49;49.76;100482.09;5093411;28;20052;-61
2023/02/18 05:44:34;;;;;;;1.67;0.70;;;;;;;16.49;49.75;100473.16;5093433;28;20070;-61
2023/02/18 05:47:04;;;;;;;2.72;1.05;;;;;;;16.49;49.77;100484.78;5093251;28;20417;-61
2023/02/18 05:49:34;;;;;;;1.48;0.73;;;;;;;16.49;49.71;100492.00;5093083;28;20477;-61
2023/02/18 05:52:02;;;;;;;0.85;0.70;;;;;;;16.47;49.85;100497.53;5093148;28;20056;-61
2023/02/18 05:54:32;;;;;;;1.77;0.70;;;;;;;16.48;49.90;100504.63;5093152;28;20126;-62
2023/02/18 05:57:00;;;;;;;1.33;0.80;;;;;;;16.47;50.22;100494.84;5093080;28;20507;-60
2023/02/18 05:59:29;;;;;;;1.17;0.73;;;;;;;16.47;49.95;100511.00;5092823;28;20055;-60
2023/02/18 06:01:57;;;;;;;1.13;0.75;;;;;;;16.45;50.03;100507.56;5110948;28;20434;-60
2023/02/18 06:04:25;;;;;;;1.00;0.80;;;;;;;16.46;49.85;100514.66;5113234;28;20146;-61
2023/02/18 06:06:54;;;;;;;1.52;0.75;;;;;;;16.43;49.79;100522.16;5113260;28;20130;-60
2023/02/18 06:09:22;;;;;;;1.80;0.90;;;;;;;16.43;49.73;100525.69;5113018;28;20050;-60
2023/02/18 06:11:52;;;;;;;1.10;0.65;;;;;;;16.45;49.97;100523.72;5113124;28;20126;-62
2023/02/18 06:14:20;;;;;;;1.52;0.90;;;;;;;16.44;50.12;100527.41;5113020;28;20050;-62
2023/02/18 06:16:48;;;;;;;0.95;0.60;;;;;;;16.44;50.10;100537.31;5113118;28;20156;-61
2023/02/18 06:19:16;;;;;;;0.73;0.57;;;;;;;16.44;49.97;100548.09;5113363;28;20479;-62
2023/02/18 06:21:45;;;;;;;1.35;0.80;;;;;;;16.42;50.09;100541.97;5112926;28;20067;-62
2023/02/18 06:24:13;;;;;;;1.10;0.70;;;;;;;16.43;50.06;100541.84;5112951;28;20059;-61
2023/02/18 06:26:41;;;;;;;1.65;0.82;;;;;;;16.42;50.26;100529.38;5112887;28;20051;-61
2023/02/18 06:29:11;;;;;;;1.33;0.65;;;;;;;16.38;50.32;100527.03;5112819;28;20065;-62
2023/02/18 06:31:39;;;;;;;0.85;0.63;;;;;;;16.41;50.07;100535.75;5112740;28;20092;-61
2023/02/18 06:34:07;;;;;;;0.95;0.70;;;;;;;16.41;50.38;100540.25;5112872;27;20130;-61
2023/02/18 06:36:35;;;;;;;0.93;0.60;;;;;;;16.41;50.15;100543.81;5112578;28;20055;-62
2023/02/18 06:39:04;;;;;;;1.90;0.77;;;;;;;16.40;50.22;100536.69;5112534;28;20501;-62
2023/02/18 06:41:34;;;;;;;1.00;0.68;;;;;;;16.39;50.28;100544.88;5112757;28;20058;-61
2023/02/18 06:44:02;;;;;;;0.98;0.70;;;;;;;16.40;50.21;100541.22;5112531;28;20043;-61
2023/02/18 06:46:31;;;;;;;1.42;0.60;;;;;;;16.39;50.08;100536.81;5112569;28;20046;-61
2023/02/18 06:49:00;;;;;;;1.23;0.70;;;;;;;16.37;50.24;100545.03;5112399;28;20056;-62
2023/02/18 06:51:28;;;;;;;1.00;0.70;;;;;;;16.38;50.18;100521.66;5112518;28;20098;-61
2023/02/18 06:53:56;;;;;;;1.40;0.80;;;;;;;16.36;50.26;100526.31;5112514;28;20481;-61
2023/02/18 06:56:25;;;;;;;0.57;0.45;;;;;;;16.37;50.09;100536.94;5112498;28;20043;-61
2023/02/18 06:58:53;;;;;;;0.98;0.60;;;;;;;16.38;50.15;100549.41;5112545;28;20466;-61
2023/02/18 07:01:21;;;;;;;1.48;0.60;;;;;;;16.39;50.21;100550.28;5112376;28;20093;-62
2023/02/18 07:03:51;;;;;;;0.82;0.63;;;;;;;16.39;50.24;100559.22;5112398;28;20481;-61
2023/02/18 07:06:19;;;;;;;1.52;0.68;;;;;;;16.38;50.26;100548.56;5112161;28;20048;-60
2023/02/18 07:08:47;;;;;;;0.75;0.57;;;;;;;16.37;50.07;100547.72;5112316;28;20048;-60
2023/02/18 07:11:16;;;;;;;1.55;0.73;;;;;;;16.37;50.24;100547.72;5112135;28;20096;-60
2023/02/18 07:13:44;;;;;;;1.42;0.70;;;;;;;16.38;50.43;100549.41;5112150;28;20565;-60
2023/02/18 07:16:12;;;;;;;1.02;0.60;;;;;;;16.36;50.28;100551.38;5112171;28;20481;-60
2023/02/18 07:18:40;;;;;;;1.33;0.50;;;;;;;16.36;50.39;100550.53;5112050;28;20077;-62
2023/02/18 07:21:09;;;;;;;1.08;0.70;;;;;;;16.35;50.33;100560.44;5112112;28;20126;-61
2023/02/18 07:23:38;;;;;;;0.77;0.50;;;;;;;16.37;50.36;100561.16;5111818;28;20404;-61
2023/02/18 07:26:08;;;;;;;0.70;0.50;;;;;;;16.36;50.40;100567.53;5111770;28;20047;-60
2023/02/18 07:28:37;;;;;;;1.10;0.75;;;;;;;16.36;50.26;100555.91;5111665;28;20485;-61
2023/02/18 07:31:06;;;;;;;1.08;0.70;;;;;;;16.37;50.56;100569.25;5110550;28;20488;-60
2023/02/18 07:33:34;;;;;;;1.00;0.60;;;;;;;16.37;50.45;100568.38;5111492;28;20051;-60
2023/02/18 07:36:03;;;;;;;0.90;0.60;;;;;;;16.36;50.47;100566.69;5111870;28;20122;-61
2023/02/18 07:38:33;;;;;;;1.17;0.70;;;;;;;16.36;50.47;100554.06;5111604;28;20408;-59
2023/02/18 07:41:01;;;;;;;1.58;0.70;;;;;;;16.37;50.46;100554.94;5111430;28;20038;-62
2023/02/18 07:43:29;;;;;;;0.95;0.60;;;;;;;16.38;50.43;100553.94;5111530;28;20039;-61
2023/02/18 07:45:57;;;;;;;1.25;0.60;;;;;;;16.39;50.44;100555.66;5111373;28;20461;-62
2023/02/18 07:48:26;;;;;;;1.65;0.63;;;;;;;16.38;50.36;100553.94;5112176;28;20450;-62
2023/02/18 07:50:54;;;;;;;0.93;0.52;;;;;;;16.35;50.55;100538.91;5111534;28;20085;-61
2023/02/18 07:53:22;;;;;;;0.68;0.52;;;;;;;16.37;50.48;100553.09;5111413;28;20546;-61
2023/02/18 07:55:52;;;;;;;0.93;0.80;;;;;;;16.39;50.44;100545.75;5111371;28;20048;-61
2023/02/18 07:58:23;;;;;;;1.23;0.68;;;;;;;16.38;50.42;100541.34;5111373;28;20044;-60
2023/02/18 08:00:53;;;;;;;2.28;0.60;;;;;;;16.38;50.44;100544.03;5112785;28;20048;-62
2023/02/18 08:03:23;;;;;;;0.82;0.50;;;;;;;16.35;50.54;100530.84;5115313;28;20048;-61
2023/02/18 08:05:52;;;;;;;1.13;0.55;;;;;;;16.40;50.41;100547.44;5115413;27;20036;-60
2023/02/18 08:08:23;;;;;;;1.15;0.60;;;;;;;16.40;50.39;100541.22;5115922;28;20097;-62
2023/02/18 08:10:54;;;;;;;1.38;0.60;;;;;;;16.39;50.57;100545.75;5115473;28;20050;-60
2023/02/18 08:13:22;;;;;;;1.25;0.60;;;;;;;16.41;50.51;100559.13;5115437;28;20063;-61
2023/02/18 08:15:50;;;;;;;1.17;0.68;;;;;;;16.40;50.54;100552.84;5115580;28;20054;-60
2023/02/18 08:18:21;;;;;;;1.13;0.57;;;;;;;16.39;50.61;100545.75;5115462;28;20075;-60
2023/02/18 08:20:50;;;;;;;0.43;0.40;;;;;;;16.40;50.50;100560.91;5115372;28;20134;-61
2023/02/18 08:23:20;;;;;;;1.75;0.73;;;;;;;16.42;50.66;100560.81;5115198;28;20122;-60
2023/02/18 08:25:50;;;;;;;0.80;0.50;;;;;;;16.41;50.71;100554.59;5115216;28;20444;-61
2023/02/18 08:28:21;;;;;;;0.57;0.52;;;;;;;16.41;50.69;100554.59;5114792;28;20135;-60
2023/02/18 08:30:51;;;;;;;1.80;0.70;;;;;;;16.42;50.68;100553.59;5114526;28;20115;-61
2023/02/18 08:33:20;;;;;;;0.90;0.60;;;;;;;16.42;50.59;100553.59;5112110;28;20492;-60
2023/02/18 08:35:50;;;;;;;2.20;0.70;;;;;;;16.44;50.62;100553.47;5114433;28;20083;-59
2023/02/18 08:38:19;;;;;;;1.58;0.57;;;;;;;16.44;50.79;100550.78;5111818;28;20055;-60
2023/02/18 08:40:47;;;;;;;3.10;0.85;;;;;;;16.44;51.24;100554.31;5114357;28;20039;-62
2023/02/18 08:43:17;;;;;;;5.90;1.10;;;;;;;16.46;51.22;100564.97;5114308;28;20047;-61
2023/02/18 08:45:46;;;;;;;5.63;1.00;;;;;;;16.47;51.41;100558.59;5114175;28;20115;-61
2023/02/18 08:48:16;;;;;;;4.97;0.98;;;;;;;16.47;51.36;100562.16;5114339;28;20043;-61
2023/02/18 08:50:48;;;;;;;3.47;0.88;;;;;;;16.48;51.50;100563.84;5113668;28;20105;-60
2023/02/18 08:53:16;;;;;;;4.70;1.13;;;;;;;16.49;51.57;100562.03;5113404;28;20481;-60
2023/02/18 08:55:45;;;;;;;3.97;0.90;;;;;;;16.50;51.67;100555.66;5114265;27;20051;-60
2023/02/18 08:58:13;;;;;;;3.35;1.08;;;;;;;16.50;51.75;100559.22;5114651;28;20048;-61
2023/02/18 09:00:43;;;;;;;4.60;0.93;;;;;;;16.51;51.52;100565.47;5113590;28;20040;-61
2023/02/18 09:03:14;;;;;;;2.72;0.80;;;;;;;16.52;51.47;100556.41;5114335;28;20036;-61
2023/02/18 09:05:42;;;;;;;4.88;1.15;;;;;;;16.53;51.50;100556.28;5114480;28;20051;-61
2023/02/18 09:08:10;;;;;;;6.05;0.88;;;;;;;16.53;51.71;100550.91;5114176;28;20043;-61
2023/02/18 09:10:39;;;;;;;3.05;0.90;;;;;;;16.53;51.49;100548.22;5114252;28;20044;-60
2023/02/18 09:13:07;;;;;;;4.45;0.88;;;;;;;16.53;51.81;100564.38;5113106;28;20046;-60
2023/02/18 09:15:35;;;;;;;3.03;0.77;;;;;;;16.54;51.70;100566.06;5114367;28;20500;-60
2023/02/18 09:18:04;;;;;;;3.95;1.05;;;;;;;16.54;51.88;100541.84;5114264;28;20054;-61
2023/02/18 09:20:34;;;;;;;5.80;1.30;;;;;;;16.53;51.79;100545.50;5114100;27;20511;-60
2023/02/18 09:23:02;;;;;;;5.55;1.27;;;;;;;16.56;51.77;100539.00;5113941;28;20052;-60
2023/02/18 09:25:30;;;;;;;5.95;1.00;;;;;;;16.56;51.76;100545.25;5114032;28;20077;-60
2023/02/18 09:27:59;;;;;;;6.93;1.17;;;;;;;16.55;51.99;100530.09;5114083;28;20104;-60
2023/02/18 09:30:27;;;;;;;4.15;1.10;;;;;;;16.57;51.85;100536.19;5113577;28;20161;-61
2023/02/18 09:32:56;;;;;;;2.97;1.00;;;;;;;16.58;52.02;100537.91;5113851;28;20043;-60
2023/02/18 09:35:24;;;;;;;2.95;1.10;;;;;;;16.59;52.10;100531.53;5113637;28;20047;-60
2023/02/18 09:37:53;;;;;;;5.50;1.25;;;;;;;16.62;52.07;100524.22;5109060;27;20048;-61
2023/02/18 09:40:28;;;;;;;3.22;0.82;;;;;;;16.60;52.08;100530.59;5113119;28;20051;-61
2023/02/18 09:42:57;;;;;;;5.57;1.42;;;;;;;16.64;52.17;100533.88;5111637;28;20048;-61
2023/02/18 09:45:25;;;;;;;4.57;1.00;;;;;;;16.65;52.00;100530.19;5111348;28;20040;-61
2023/02/18 09:47:54;;;;;;;4.68;0.90;;;;;;;16.67;52.13;100524.69;5111501;28;20048;-61
2023/02/18 09:50:26;;;;;;;4.43;1.05;;;;;;;16.68;51.90;100539.84;5111659;28;20040;-61
2023/02/18 09:52:58;;;;;;;5.00;0.82;;;;;;;16.68;51.88;100545.25;5112341;28;20162;-60
2023/02/18 09:55:30;;;;;;;6.40;1.02;;;;;;;16.70;51.87;100544.19;5112219;28;20062;-61
2023/02/18 09:58:02;;;;;;;5.50;1.23;;;;;;;16.72;52.04;100538.69;5113318;28;20051;-63
2023/02/18 10:00:34;;;;;;;4.15;1.05;;;;;;;16.71;52.04;100536.97;5113619;28;20056;-61
2023/02/18 10:03:06;;;;;;;10.13;1.20;;;;;;;16.72;51.91;100546.75;5113258;28;20044;-61
2023/02/18 10:05:36;;;;;;;4.80;1.27;;;;;;;16.74;52.18;100539.41;5113265;28;20455;-60
2023/02/18 10:08:08;;;;;;;4.72;1.30;;;;;;;16.74;51.98;100550.19;5113174;28;20462;-61
2023/02/18 10:10:40;;;;;;;4.43;1.10;;;;;;;16.76;52.14;100540.13;5113205;28;20051;-60
2023/02/18 10:13:13;;;;;;;3.85;1.08;;;;;;;16.74;52.27;100539.41;5113048;28;20051;-62
2023/02/18 10:15:42;;;;;;;3.65;1.02;;;;;;;16.75;52.26;100541.13;5113055;28;20403;-62
2023/02/18 10:18:24;;;;;;;4.55;1.13;;;;;;;16.76;52.07;100532.03;5112941;28;20122;-60
2023/02/18 10:21:04;;;;;;;4.53;0.90;;;;;;;16.75;52.02;100533.03;5112915;28;20051;-61
2023/02/18 10:23:38;;;;;;;3.78;0.98;;;;;;;16.76;51.87;100529.34;5112600;28;20510;-61
2023/02/18 10:26:10;;;;;;;4.90;0.88;;;;;;;16.75;52.27;100531.19;5112906;28;20131;-61
2023/02/18 10:28:38;;;;;;;4.82;1.10;;;;;;;16.76;52.07;100532.03;5112875;28;20051;-61
2023/02/18 10:31:09;;;;;;;4.80;1.00;;;;;;;16.76;51.99;100530.22;5112556;28;20043;-61
2023/02/18 10:33:45;;;;;;;3.33;0.70;;;;;;;16.76;51.86;100542.81;5112693;28;20059;-61
2023/02/18 10:36:29;;;;;;;3.47;0.77;;;;;;;16.75;51.67;100533.03;5112423;28;20130;-61
2023/02/18 10:39:13;;;;;;;;;;;;;;;16.77;51.80;100525.69;5113184;28;20047;-61
2023/02/18 10:41:51;;;;;;;2.55;1.00;;;;;;;16.78;51.85;100535.47;5112374;28;19927;-61
2023/02/18 10:44:30;;;;;;;4.90;1.10;;;;;;;16.80;52.11;100520.06;5112513;28;20047;-61
2023/02/18 10:47:09;;;;;;;4.90;0.77;;;;;;;16.80;52.18;100511.97;5112531;28;20412;-61
2023/02/18 10:49:55;;;;;;;2.58;0.75;;;;;;;16.80;52.29;100514.66;5112316;28;20492;-60
2023/02/18 10:52:27;;;;;;;3.70;0.73;;;;;;;16.84;52.32;100514.28;5112270;28;20504;-61
2023/02/18 10:55:03;;;;;;;2.30;0.90;;;;;;;16.84;52.20;100516.97;5112410;28;20071;-61
2023/02/18 10:57:32;;;;;;;2.95;0.65;;;;;;;16.84;52.30;100503.50;5112488;28;20070;-61
2023/02/18 11:00:10;;;;;;;5.07;1.00;;;;;;;16.85;52.08;100510.59;5112382;28;20050;-61
2023/02/18 11:02:39;;;;;;;2.55;0.90;;;;;;;16.87;52.11;100524.78;5107395;28;20054;-59
2023/02/18 11:05:20;;;;;;;3.58;0.70;;;;;;;16.87;52.07;100502.38;5102091;28;20044;-60
2023/02/18 11:07:51;;;;;;;2.42;0.80;;;;;;;16.90;52.10;100504.00;5091973;28;20435;-61
2023/02/18 11:10:25;;;;;;;2.72;0.90;;;;;;;16.90;52.27;100512.94;5091897;28;20047;-60
2023/02/18 11:12:57;;;;;;;5.18;1.05;;;;;;;16.88;52.35;100504.09;5091778;28;20047;-63
2023/02/18 11:15:26;;;;;;;3.10;1.00;;;;;;;16.89;52.44;100495.06;5091856;28;20431;-60
2023/02/18 11:17:58;;;;;;;7.28;1.45;;;;;;;16.90;52.15;100487.84;5091868;28;20493;-62
2023/02/18 11:20:30;;;;;;;44.65;23.83;;;;;;;16.93;52.99;100485.72;5091873;28;20044;-60
2023/02/18 11:23:00;;;;;;;132.48;71.03;;;;;;;16.95;53.18;100478.38;5091683;28;20040;-61
2023/02/18 11:25:33;;;;;;;125.65;68.28;;;;;;;16.95;53.53;100472.13;5091603;28;20082;-61
2023/02/18 11:28:05;;;;;;;112.68;60.53;;;;;;;16.98;54.21;100470.00;5091774;28;20109;-62
2023/02/18 11:30:36;;;;;;;160.48;86.35;;;;;;;17.01;54.74;100460.84;5101246;28;20070;-64
2023/02/18 11:33:09;;;;;;;172.07;96.28;;;;;;;17.03;55.40;100458.88;5111906;28;20073;-61
2023/02/18 11:35:38;;;;;;;159.75;86.88;;;;;;;17.04;56.38;100456.03;5113357;28;20396;-63
2023/02/18 11:38:23;;;;;;;164.48;91.35;;;;;;;17.11;56.84;100467.16;5115911;28;20052;-65
2023/02/18 11:40:57;;;;;;;182.65;101.03;;;;;;;17.11;57.19;100451.84;5116226;28;20071;-65
2023/02/18 11:43:29;;;;;;;180.30;97.85;;;;;;;17.14;57.61;100454.28;5116032;28;20369;-65